createdAt,value
2018-12-09T00:04:30.074Z,12.18
2018-12-09T00:10:25.082Z,6.39
2018-12-09T00:16:20.096Z,6.45
2018-12-09T00:22:15.086Z,9.57
2018-12-09T00:28:10.116Z,3.61
2018-12-09T00:34:05.095Z,15.11
2018-12-09T00:40:00.127Z,5.45
2018-12-09T00:45:55.097Z,7.02
2018-12-09T00:51:50.098Z,8.73
2018-12-09T00:57:45.153Z,7.02
2018-12-09T01:03:40.100Z,4.37
2018-12-09T01:09:35.129Z,6.34
2018-12-09T01:15:30.114Z,4.65
2018-12-09T01:21:25.108Z,4.36
2018-12-09T01:27:20.140Z,4.51
2018-12-09T01:33:15.137Z,5.9
2018-12-09T01:39:10.124Z,5.81
2018-12-09T01:45:05.169Z,7.78
2018-12-09T01:51:00.115Z,8.21
2018-12-09T01:56:55.129Z,5.15
2018-12-09T02:02:50.140Z,7.74
2018-12-09T02:08:45.158Z,11.03
2018-12-09T02:14:40.168Z,7.95
2018-12-09T02:20:35.170Z,7.63
2018-12-09T02:26:30.136Z,8.39
2018-12-09T02:32:25.207Z,6.03
2018-12-09T02:38:20.182Z,8.17
2018-12-09T02:44:15.212Z,8.07
2018-12-09T02:50:10.143Z,7.23
2018-12-09T02:56:05.148Z,13.81
2018-12-09T03:02:00.149Z,8.86
2018-12-09T03:07:55.151Z,8.85
2018-12-09T03:13:50.242Z,13.61
2018-12-09T03:19:45.169Z,6.87
2018-12-09T03:25:40.182Z,10.34
2018-12-09T03:31:35.184Z,7.88
2018-12-09T03:37:30.181Z,8.16
2018-12-09T03:43:25.160Z,7.82
2018-12-09T03:49:20.208Z,6.01
2018-12-09T03:55:15.181Z,9.35
2018-12-09T04:01:10.179Z,7.49
2018-12-09T04:07:05.189Z,11.31
2018-12-09T04:13:00.210Z,9.46
2018-12-09T04:18:55.193Z,11.32
2018-12-09T04:24:50.232Z,11.03
2018-12-09T04:30:45.229Z,12.35
2018-12-09T04:36:40.245Z,13.05
2018-12-09T04:42:35.239Z,19.16
2018-12-09T04:48:30.217Z,12.69
2018-12-09T04:54:25.251Z,12.06
2018-12-09T05:00:20.242Z,11.88
2018-12-09T05:06:15.220Z,11.99
2018-12-09T05:12:10.230Z,11.18
2018-12-09T05:18:05.228Z,15.17
2018-12-09T05:24:00.214Z,12.68
2018-12-09T05:29:55.243Z,15.91
2018-12-09T05:35:50.218Z,14.18
2018-12-09T05:41:45.252Z,12.43
2018-12-09T05:47:40.232Z,15.97
2018-12-09T05:53:35.319Z,16.54
2018-12-09T05:59:30.237Z,13.89
2018-12-09T06:05:25.279Z,12.59
2018-12-09T06:11:20.258Z,14.58
2018-12-09T06:17:15.248Z,19.49
2018-12-09T06:23:10.300Z,13.04
2018-12-09T06:29:05.261Z,13.69
2018-12-09T06:35:00.269Z,14.44
2018-12-09T06:40:55.265Z,19.35
2018-12-09T06:46:50.300Z,15.95
2018-12-09T06:52:45.236Z,14.81
2018-12-09T06:58:40.245Z,16.62
2018-12-09T07:04:35.256Z,18.77
2018-12-09T07:10:30.295Z,16.55
2018-12-09T07:16:25.301Z,17.65
2018-12-09T07:22:20.278Z,14.5
2018-12-09T07:28:15.328Z,17.9
2018-12-09T07:34:10.263Z,20.7
2018-12-09T07:40:05.337Z,20.42
2018-12-09T07:46:00.272Z,21.11
2018-12-09T07:51:55.267Z,19.47
2018-12-09T07:57:50.329Z,19.04
2018-12-09T08:03:45.322Z,26.76
2018-12-09T08:09:40.346Z,16.34
2018-12-09T08:15:35.312Z,22.31
2018-12-09T08:21:30.283Z,30.15
2018-12-09T08:27:25.293Z,25.81
2018-12-09T08:33:20.339Z,29.15
2018-12-09T08:39:15.331Z,29.16
2018-12-09T08:45:10.312Z,32.07
2018-12-09T08:51:05.330Z,33.75
2018-12-09T08:57:00.311Z,49.59
2018-12-09T09:02:55.341Z,76.78
2018-12-09T09:08:50.343Z,78.47
2018-12-09T09:14:45.331Z,80.46
2018-12-09T09:20:40.347Z,81.02
2018-12-09T09:26:35.353Z,110.73
2018-12-09T09:32:30.332Z,69.53
2018-12-09T09:38:25.343Z,64.75
2018-12-09T09:44:20.394Z,68.99
2018-12-09T09:56:10.350Z,72.29
2018-12-09T09:56:10.379Z,78.08
2018-12-09T10:02:05.342Z,63.84
2018-12-09T10:08:00.358Z,93.99
2018-12-09T10:13:55.370Z,132.19
2018-12-09T10:19:50.354Z,121.04
2018-12-09T10:25:45.382Z,96.33
2018-12-09T10:37:35.375Z,100.6
2018-12-09T10:37:35.410Z,116.96
2018-12-09T10:43:30.376Z,83.18
2018-12-09T10:49:30.587Z,89.67
2018-12-09T10:55:20.381Z,77.44
2018-12-09T11:19:02.458Z,125.01
2018-12-09T11:24:55.926Z,113.87
2018-12-09T11:30:55.504Z,96.76
2018-12-09T11:36:45.424Z,80.16
2018-12-09T11:42:40.411Z,116.81
2018-12-09T11:48:35.467Z,113.04
2018-12-09T11:54:30.416Z,115.72
2018-12-09T12:00:25.417Z,88.09
2018-12-09T12:06:20.422Z,84.64
2018-12-09T12:12:15.457Z,119.23
2018-12-09T12:18:10.431Z,92.52
2018-12-09T12:24:05.447Z,167.12
2018-12-09T12:30:00.493Z,124.53
2018-12-09T12:35:55.470Z,104.34
2018-12-09T12:41:50.420Z,70.48
2018-12-09T12:47:45.467Z,73.04
2018-12-09T12:53:40.449Z,92.66
2018-12-09T12:59:35.450Z,61.96
2018-12-09T13:05:30.483Z,111.22
2018-12-09T13:11:25.472Z,81.22
2018-12-09T13:17:22.461Z,67.25
2018-12-09T13:23:15.964Z,72.26
2018-12-09T13:41:00.497Z,82.5
2018-12-09T13:41:02.699Z,84.97
2018-12-09T13:41:02.711Z,84.97
2018-12-09T13:52:50.499Z,78.43
2018-12-09T13:52:50.537Z,65.31
2018-12-09T13:58:45.512Z,74.04
2018-12-09T14:04:40.497Z,74.45
2018-12-09T14:10:35.491Z,68.01
2018-12-09T14:16:30.497Z,55.72
2018-12-09T14:22:25.512Z,49.65
2018-12-09T14:28:20.504Z,41.31
2018-12-09T14:34:15.524Z,38.86
2018-12-09T14:40:10.526Z,36.52
2018-12-09T14:46:05.520Z,42.13
2018-12-09T14:52:00.531Z,46.98
2018-12-09T14:57:55.519Z,33.97
2018-12-09T15:03:50.575Z,29.2
2018-12-09T15:09:45.531Z,37.66
2018-12-09T15:15:40.582Z,34.09
2018-12-09T15:21:35.553Z,39.65
2018-12-09T15:27:30.556Z,32.95
2018-12-09T15:33:25.564Z,30.89
2018-12-09T15:39:20.548Z,54.47
2018-12-09T15:45:15.558Z,58.65
2018-12-09T15:51:10.550Z,54.05
2018-12-09T15:57:05.638Z,37.14
2018-12-09T16:03:00.549Z,47.37
2018-12-09T16:08:55.642Z,39.05
2018-12-09T16:14:50.650Z,35.42
2018-12-09T16:20:45.593Z,35.03
2018-12-09T16:26:40.589Z,32.36
2018-12-09T16:32:35.609Z,45.46
2018-12-09T16:38:30.589Z,36.79
2018-12-09T16:44:25.611Z,22.12
2018-12-09T16:50:20.639Z,72.31
2018-12-09T16:56:15.611Z,23.8
2018-12-09T17:02:10.652Z,32.57
2018-12-09T17:08:05.614Z,35.73
2018-12-09T17:14:00.602Z,31.44
2018-12-09T17:19:55.644Z,33.18
2018-12-09T17:25:50.838Z,31.33
2018-12-09T17:31:45.625Z,28.39
2018-12-09T17:37:40.635Z,33.81
2018-12-09T17:43:35.639Z,34.83
2018-12-09T17:49:30.622Z,19.8
2018-12-09T17:55:25.645Z,14.77
2018-12-09T18:01:20.815Z,15.94
2018-12-09T18:07:15.636Z,10.59
2018-12-09T18:13:10.663Z,33.21
2018-12-09T18:19:05.678Z,25.76
2018-12-09T18:25:00.673Z,52.44
2018-12-09T18:30:55.702Z,48.06
2018-12-09T18:36:50.710Z,33.65
2018-12-09T18:42:45.651Z,30.42
2018-12-09T18:48:40.650Z,30.27
2018-12-09T18:54:35.656Z,48.34
2018-12-09T19:00:30.696Z,47.97
2018-12-09T19:06:25.671Z,87.63
2018-12-09T19:12:20.717Z,64.94
2018-12-09T19:18:15.698Z,82.19
2018-12-09T19:24:10.683Z,59.36
2018-12-09T19:30:05.706Z,42.54
2018-12-09T19:36:00.727Z,45.4
2018-12-09T19:41:55.733Z,34.36
2018-12-09T19:47:50.695Z,43.8
2018-12-09T19:53:45.719Z,26.74
2018-12-09T19:59:40.705Z,32.57
2018-12-09T20:05:35.752Z,34.46
2018-12-09T20:11:30.712Z,34.06
2018-12-09T20:17:25.722Z,19.44
2018-12-09T20:23:20.700Z,19.81
2018-12-09T20:29:15.729Z,20.68
2018-12-09T20:35:10.707Z,29.76
2018-12-09T20:41:05.758Z,27.47
2018-12-09T20:47:00.703Z,30.67
2018-12-09T20:52:55.728Z,87.4
2018-12-09T20:58:50.726Z,52.6
2018-12-09T21:04:45.759Z,71.77
2018-12-09T21:10:40.755Z,71.14
2018-12-09T21:16:35.742Z,42.94
2018-12-09T21:22:30.807Z,68.95
2018-12-09T21:28:25.776Z,61.82
2018-12-09T21:34:20.756Z,46.23
2018-12-09T21:40:15.761Z,46.66
2018-12-09T21:46:10.788Z,41.74
2018-12-09T21:52:05.753Z,34.47
2018-12-09T21:58:00.785Z,28.97
2018-12-09T22:03:55.797Z,25.77
2018-12-09T22:09:50.871Z,30.73
2018-12-09T22:15:45.766Z,26.47
2018-12-09T22:21:40.773Z,39.03
2018-12-09T22:27:35.794Z,66.93
2018-12-09T22:33:30.817Z,53.41
2018-12-09T22:39:25.773Z,69.27
2018-12-09T22:45:20.775Z,65.8
2018-12-09T22:51:15.820Z,41.16
2018-12-09T22:57:10.836Z,37.06
2018-12-09T23:03:05.800Z,29.98
2018-12-09T23:09:00.819Z,49.69
2018-12-09T23:14:55.799Z,33.7
2018-12-09T23:20:50.803Z,43.3
2018-12-09T23:26:45.809Z,23.63
2018-12-09T23:32:40.803Z,22.82
2018-12-09T23:38:35.814Z,17.94
2018-12-09T23:44:30.841Z,22.29
2018-12-09T23:50:25.899Z,22
2018-12-09T23:56:20.838Z,24.93
